sensor_id;sensor_type;location;lat;lon;timestamp;P1;durP1;ratioP1;P2;durP2;ratioP2
43184;SDS011;28803;52.308;19.096;2023-07-13T00:01:56;7.70;;;5.78;;
43184;SDS011;28803;52.308;19.096;2023-07-13T00:04:24;9.57;;;5.65;;
43184;SDS011;28803;52.308;19.096;2023-07-13T00:06:53;12.57;;;6.55;;
43184;SDS011;28803;52.308;19.096;2023-07-13T00:09:20;11.85;;;6.15;;
43184;SDS011;28803;52.308;19.096;2023-07-13T00:11:51;8.77;;;5.20;;
43184;SDS011;28803;52.308;19.096;2023-07-13T00:14:19;7.38;;;5.50;;
43184;SDS011;28803;52.308;19.096;2023-07-13T00:16:47;7.95;;;5.63;;
43184;SDS011;28803;52.308;19.096;2023-07-13T00:19:14;11.07;;;6.50;;
43184;SDS011;28803;52.308;19.096;2023-07-13T00:21:42;11.88;;;6.53;;
43184;SDS011;28803;52.308;19.096;2023-07-13T00:24:10;14.85;;;6.70;;
43184;SDS011;28803;52.308;19.096;2023-07-13T00:26:50;9.05;;;7.10;;
43184;SDS011;28803;52.308;19.096;2023-07-13T00:29:17;11.57;;;5.88;;
43184;SDS011;28803;52.308;19.096;2023-07-13T00:31:45;13.25;;;6.88;;
43184;SDS011;28803;52.308;19.096;2023-07-13T00:34:12;12.10;;;5.85;;
43184;SDS011;28803;52.308;19.096;2023-07-13T00:36:40;8.30;;;6.05;;
43184;SDS011;28803;52.308;19.096;2023-07-13T00:39:07;13.45;;;7.00;;
43184;SDS011;28803;52.308;19.096;2023-07-13T00:41:35;14.88;;;7.43;;
43184;SDS011;28803;52.308;19.096;2023-07-13T00:44:03;11.32;;;7.68;;
43184;SDS011;28803;52.308;19.096;2023-07-13T00:46:31;12.65;;;6.47;;
43184;SDS011;28803;52.308;19.096;2023-07-13T00:49:01;11.43;;;7.25;;
43184;SDS011;28803;52.308;19.096;2023-07-13T00:51:37;13.60;;;7.40;;
43184;SDS011;28803;52.308;19.096;2023-07-13T00:54:10;10.45;;;6.22;;
43184;SDS011;28803;52.308;19.096;2023-07-13T00:56:41;10.65;;;5.82;;
43184;SDS011;28803;52.308;19.096;2023-07-13T00:59:11;8.32;;;5.80;;
43184;SDS011;28803;52.308;19.096;2023-07-13T01:01:41;10.70;;;6.60;;
43184;SDS011;28803;52.308;19.096;2023-07-13T01:04:08;10.27;;;6.40;;
43184;SDS011;28803;52.308;19.096;2023-07-13T01:06:37;9.98;;;7.20;;
43184;SDS011;28803;52.308;19.096;2023-07-13T01:09:06;8.23;;;6.07;;
43184;SDS011;28803;52.308;19.096;2023-07-13T01:11:35;9.25;;;6.32;;
43184;SDS011;28803;52.308;19.096;2023-07-13T01:14:02;15.43;;;7.55;;
43184;SDS011;28803;52.308;19.096;2023-07-13T01:16:31;11.93;;;7.68;;
43184;SDS011;28803;52.308;19.096;2023-07-13T01:19:00;12.82;;;7.45;;
43184;SDS011;28803;52.308;19.096;2023-07-13T01:21:32;11.25;;;7.40;;
43184;SDS011;28803;52.308;19.096;2023-07-13T01:24:00;10.25;;;7.07;;
43184;SDS011;28803;52.308;19.096;2023-07-13T01:26:28;11.73;;;7.85;;
43184;SDS011;28803;52.308;19.096;2023-07-13T01:28:55;12.65;;;6.75;;
43184;SDS011;28803;52.308;19.096;2023-07-13T01:31:23;13.63;;;7.05;;
43184;SDS011;28803;52.308;19.096;2023-07-13T01:33:51;15.20;;;8.32;;
43184;SDS011;28803;52.308;19.096;2023-07-13T01:36:18;15.20;;;7.47;;
43184;SDS011;28803;52.308;19.096;2023-07-13T01:38:47;14.40;;;7.18;;
43184;SDS011;28803;52.308;19.096;2023-07-13T01:41:15;14.98;;;7.22;;
43184;SDS011;28803;52.308;19.096;2023-07-13T01:43:42;16.83;;;6.55;;
43184;SDS011;28803;52.308;19.096;2023-07-13T01:46:10;22.35;;;7.93;;
43184;SDS011;28803;52.308;19.096;2023-07-13T01:48:49;16.95;;;7.78;;
43184;SDS011;28803;52.308;19.096;2023-07-13T01:51:17;11.95;;;7.53;;
43184;SDS011;28803;52.308;19.096;2023-07-13T01:53:45;17.05;;;7.05;;
43184;SDS011;28803;52.308;19.096;2023-07-13T01:56:13;14.32;;;7.75;;
43184;SDS011;28803;52.308;19.096;2023-07-13T01:58:40;9.82;;;6.80;;
43184;SDS011;28803;52.308;19.096;2023-07-13T02:01:08;14.50;;;7.82;;
43184;SDS011;28803;52.308;19.096;2023-07-13T02:03:35;13.48;;;7.88;;
43184;SDS011;28803;52.308;19.096;2023-07-13T02:06:03;19.65;;;7.60;;
43184;SDS011;28803;52.308;19.096;2023-07-13T02:08:30;11.55;;;7.97;;
43184;SDS011;28803;52.308;19.096;2023-07-13T02:11:00;14.50;;;8.63;;
43184;SDS011;28803;52.308;19.096;2023-07-13T02:13:29;19.10;;;7.80;;
43184;SDS011;28803;52.308;19.096;2023-07-13T02:15:56;9.05;;;6.63;;
43184;SDS011;28803;52.308;19.096;2023-07-13T02:18:24;11.07;;;7.72;;
43184;SDS011;28803;52.308;19.096;2023-07-13T02:20:51;13.35;;;8.18;;
43184;SDS011;28803;52.308;19.096;2023-07-13T02:23:18;15.23;;;8.80;;
43184;SDS011;28803;52.308;19.096;2023-07-13T02:25:46;11.48;;;7.88;;
43184;SDS011;28803;52.308;19.096;2023-07-13T02:28:13;14.65;;;7.30;;
43184;SDS011;28803;52.308;19.096;2023-07-13T02:30:41;13.88;;;7.35;;
43184;SDS011;28803;52.308;19.096;2023-07-13T02:33:08;13.23;;;8.32;;
43184;SDS011;28803;52.308;19.096;2023-07-13T02:35:35;16.67;;;8.07;;
43184;SDS011;28803;52.308;19.096;2023-07-13T02:38:03;13.90;;;7.63;;
43184;SDS011;28803;52.308;19.096;2023-07-13T02:40:30;10.55;;;7.28;;
43184;SDS011;28803;52.308;19.096;2023-07-13T02:42:59;12.85;;;8.65;;
43184;SDS011;28803;52.308;19.096;2023-07-13T02:45:27;13.73;;;8.50;;
43184;SDS011;28803;52.308;19.096;2023-07-13T02:47:54;7.72;;;5.85;;
43184;SDS011;28803;52.308;19.096;2023-07-13T02:50:22;13.77;;;8.45;;
43184;SDS011;28803;52.308;19.096;2023-07-13T02:52:49;13.05;;;7.97;;
43184;SDS011;28803;52.308;19.096;2023-07-13T02:55:16;12.55;;;8.05;;
43184;SDS011;28803;52.308;19.096;2023-07-13T02:57:44;17.90;;;8.25;;
43184;SDS011;28803;52.308;19.096;2023-07-13T03:00:11;8.48;;;6.22;;
43184;SDS011;28803;52.308;19.096;2023-07-13T03:02:38;10.48;;;7.18;;
43184;SDS011;28803;52.308;19.096;2023-07-13T03:05:06;14.52;;;7.68;;
43184;SDS011;28803;52.308;19.096;2023-07-13T03:07:34;17.40;;;8.68;;
43184;SDS011;28803;52.308;19.096;2023-07-13T03:10:01;15.45;;;8.13;;
43184;SDS011;28803;52.308;19.096;2023-07-13T03:12:29;16.05;;;9.18;;
43184;SDS011;28803;52.308;19.096;2023-07-13T03:14:57;16.67;;;9.23;;
43184;SDS011;28803;52.308;19.096;2023-07-13T03:17:24;10.38;;;7.78;;
43184;SDS011;28803;52.308;19.096;2023-07-13T03:19:52;10.93;;;7.47;;
43184;SDS011;28803;52.308;19.096;2023-07-13T03:22:19;26.10;;;8.10;;
43184;SDS011;28803;52.308;19.096;2023-07-13T03:24:47;11.63;;;6.68;;
43184;SDS011;28803;52.308;19.096;2023-07-13T03:27:15;11.65;;;7.50;;
43184;SDS011;28803;52.308;19.096;2023-07-13T03:29:44;12.00;;;7.10;;
43184;SDS011;28803;52.308;19.096;2023-07-13T03:32:11;11.15;;;6.88;;
43184;SDS011;28803;52.308;19.096;2023-07-13T03:34:39;19.27;;;7.03;;
43184;SDS011;28803;52.308;19.096;2023-07-13T03:37:06;18.40;;;7.53;;
43184;SDS011;28803;52.308;19.096;2023-07-13T03:39:33;10.55;;;6.95;;
43184;SDS011;28803;52.308;19.096;2023-07-13T03:42:00;15.70;;;8.50;;
43184;SDS011;28803;52.308;19.096;2023-07-13T03:44:28;13.50;;;7.70;;
43184;SDS011;28803;52.308;19.096;2023-07-13T03:46:55;20.88;;;8.82;;
43184;SDS011;28803;52.308;19.096;2023-07-13T03:49:23;14.73;;;8.77;;
43184;SDS011;28803;52.308;19.096;2023-07-13T03:51:50;16.38;;;10.40;;
43184;SDS011;28803;52.308;19.096;2023-07-13T03:54:20;28.35;;;12.85;;
43184;SDS011;28803;52.308;19.096;2023-07-13T03:56:47;21.50;;;10.57;;
43184;SDS011;28803;52.308;19.096;2023-07-13T03:59:15;14.38;;;9.68;;
43184;SDS011;28803;52.308;19.096;2023-07-13T04:01:43;19.40;;;10.32;;
43184;SDS011;28803;52.308;19.096;2023-07-13T04:04:11;18.13;;;10.43;;
43184;SDS011;28803;52.308;19.096;2023-07-13T04:06:38;15.45;;;9.68;;
43184;SDS011;28803;52.308;19.096;2023-07-13T04:09:06;18.77;;;11.80;;
43184;SDS011;28803;52.308;19.096;2023-07-13T04:11:33;16.48;;;9.98;;
43184;SDS011;28803;52.308;19.096;2023-07-13T04:14:03;17.88;;;11.82;;
43184;SDS011;28803;52.308;19.096;2023-07-13T04:16:30;24.15;;;10.48;;
43184;SDS011;28803;52.308;19.096;2023-07-13T04:18:57;15.90;;;10.77;;
43184;SDS011;28803;52.308;19.096;2023-07-13T04:21:28;21.95;;;13.40;;
43184;SDS011;28803;52.308;19.096;2023-07-13T04:23:57;26.33;;;14.43;;
43184;SDS011;28803;52.308;19.096;2023-07-13T04:26:25;27.33;;;13.77;;
43184;SDS011;28803;52.308;19.096;2023-07-13T04:28:53;25.38;;;13.18;;
43184;SDS011;28803;52.308;19.096;2023-07-13T04:31:20;25.25;;;13.63;;
43184;SDS011;28803;52.308;19.096;2023-07-13T04:33:48;24.52;;;15.50;;
43184;SDS011;28803;52.308;19.096;2023-07-13T04:36:17;26.25;;;15.18;;
43184;SDS011;28803;52.308;19.096;2023-07-13T04:38:44;32.80;;;16.90;;
43184;SDS011;28803;52.308;19.096;2023-07-13T04:41:12;39.40;;;17.30;;
43184;SDS011;28803;52.308;19.096;2023-07-13T04:43:40;33.28;;;17.35;;
43184;SDS011;28803;52.308;19.096;2023-07-13T04:46:08;27.48;;;17.52;;
43184;SDS011;28803;52.308;19.096;2023-07-13T04:48:39;36.67;;;18.65;;
43184;SDS011;28803;52.308;19.096;2023-07-13T04:51:06;31.23;;;17.75;;
43184;SDS011;28803;52.308;19.096;2023-07-13T04:53:34;33.55;;;19.60;;
43184;SDS011;28803;52.308;19.096;2023-07-13T04:56:02;35.95;;;20.15;;
43184;SDS011;28803;52.308;19.096;2023-07-13T04:58:30;30.73;;;20.25;;
43184;SDS011;28803;52.308;19.096;2023-07-13T05:01:02;28.25;;;18.13;;
43184;SDS011;28803;52.308;19.096;2023-07-13T05:03:30;28.95;;;18.90;;
43184;SDS011;28803;52.308;19.096;2023-07-13T05:05:59;32.63;;;18.85;;
43184;SDS011;28803;52.308;19.096;2023-07-13T05:08:29;27.08;;;17.42;;
43184;SDS011;28803;52.308;19.096;2023-07-13T05:10:56;28.25;;;18.35;;
43184;SDS011;28803;52.308;19.096;2023-07-13T05:13:27;25.42;;;15.32;;
43184;SDS011;28803;52.308;19.096;2023-07-13T05:15:57;23.98;;;14.90;;
43184;SDS011;28803;52.308;19.096;2023-07-13T05:18:26;17.95;;;13.13;;
43184;SDS011;28803;52.308;19.096;2023-07-13T05:20:58;23.38;;;14.77;;
43184;SDS011;28803;52.308;19.096;2023-07-13T05:23:27;17.65;;;13.65;;
43184;SDS011;28803;52.308;19.096;2023-07-13T05:25:56;21.67;;;14.80;;
43184;SDS011;28803;52.308;19.096;2023-07-13T05:28:24;21.10;;;15.20;;
43184;SDS011;28803;52.308;19.096;2023-07-13T05:30:52;19.33;;;12.68;;
43184;SDS011;28803;52.308;19.096;2023-07-13T05:33:21;15.88;;;11.27;;
43184;SDS011;28803;52.308;19.096;2023-07-13T05:35:48;22.50;;;13.30;;
43184;SDS011;28803;52.308;19.096;2023-07-13T05:38:16;18.85;;;13.38;;
43184;SDS011;28803;52.308;19.096;2023-07-13T05:40:44;12.85;;;10.20;;
43184;SDS011;28803;52.308;19.096;2023-07-13T05:43:13;16.33;;;11.07;;
43184;SDS011;28803;52.308;19.096;2023-07-13T05:45:40;16.27;;;11.60;;
43184;SDS011;28803;52.308;19.096;2023-07-13T05:48:08;17.83;;;10.80;;
43184;SDS011;28803;52.308;19.096;2023-07-13T05:50:35;16.05;;;11.55;;
43184;SDS011;28803;52.308;19.096;2023-07-13T05:53:03;16.30;;;11.85;;
43184;SDS011;28803;52.308;19.096;2023-07-13T05:55:30;15.25;;;11.60;;
43184;SDS011;28803;52.308;19.096;2023-07-13T05:57:58;21.77;;;12.38;;
43184;SDS011;28803;52.308;19.096;2023-07-13T06:00:26;20.67;;;12.35;;
43184;SDS011;28803;52.308;19.096;2023-07-13T06:02:55;17.92;;;12.90;;
43184;SDS011;28803;52.308;19.096;2023-07-13T06:05:23;19.35;;;12.90;;
43184;SDS011;28803;52.308;19.096;2023-07-13T06:07:50;23.38;;;14.32;;
43184;SDS011;28803;52.308;19.096;2023-07-13T06:10:18;21.92;;;14.02;;
43184;SDS011;28803;52.308;19.096;2023-07-13T06:12:45;17.20;;;12.98;;
43184;SDS011;28803;52.308;19.096;2023-07-13T06:15:13;17.75;;;13.52;;
43184;SDS011;28803;52.308;19.096;2023-07-13T06:17:44;22.75;;;14.75;;
43184;SDS011;28803;52.308;19.096;2023-07-13T06:20:11;22.23;;;13.27;;
43184;SDS011;28803;52.308;19.096;2023-07-13T06:22:39;20.83;;;14.52;;
43184;SDS011;28803;52.308;19.096;2023-07-13T06:25:06;19.30;;;13.32;;
43184;SDS011;28803;52.308;19.096;2023-07-13T06:27:34;19.05;;;13.40;;
43184;SDS011;28803;52.308;19.096;2023-07-13T06:30:01;21.17;;;14.35;;
43184;SDS011;28803;52.308;19.096;2023-07-13T06:32:29;22.80;;;14.45;;
43184;SDS011;28803;52.308;19.096;2023-07-13T06:34:57;32.22;;;14.70;;
43184;SDS011;28803;52.308;19.096;2023-07-13T06:37:24;20.50;;;12.85;;
43184;SDS011;28803;52.308;19.096;2023-07-13T06:39:51;23.13;;;13.35;;
43184;SDS011;28803;52.308;19.096;2023-07-13T06:42:18;21.15;;;13.90;;
43184;SDS011;28803;52.308;19.096;2023-07-13T06:44:46;21.77;;;14.73;;
43184;SDS011;28803;52.308;19.096;2023-07-13T06:47:13;23.58;;;16.33;;
43184;SDS011;28803;52.308;19.096;2023-07-13T06:49:41;23.92;;;18.40;;
43184;SDS011;28803;52.308;19.096;2023-07-13T06:52:08;31.17;;;21.48;;
43184;SDS011;28803;52.308;19.096;2023-07-13T06:54:36;35.67;;;22.50;;
43184;SDS011;28803;52.308;19.096;2023-07-13T06:57:03;30.38;;;19.45;;
43184;SDS011;28803;52.308;19.096;2023-07-13T06:59:31;29.55;;;20.17;;
43184;SDS011;28803;52.308;19.096;2023-07-13T07:01:59;30.60;;;20.83;;
43184;SDS011;28803;52.308;19.096;2023-07-13T07:04:26;30.23;;;20.63;;
43184;SDS011;28803;52.308;19.096;2023-07-13T07:06:54;31.67;;;20.48;;
43184;SDS011;28803;52.308;19.096;2023-07-13T07:09:25;27.95;;;20.08;;
43184;SDS011;28803;52.308;19.096;2023-07-13T07:11:52;28.48;;;21.45;;
43184;SDS011;28803;52.308;19.096;2023-07-13T07:14:30;30.67;;;20.10;;
43184;SDS011;28803;52.308;19.096;2023-07-13T07:16:58;29.02;;;19.88;;
43184;SDS011;28803;52.308;19.096;2023-07-13T07:19:27;28.45;;;20.13;;
43184;SDS011;28803;52.308;19.096;2023-07-13T07:21:56;26.52;;;18.75;;
43184;SDS011;28803;52.308;19.096;2023-07-13T07:24:23;27.63;;;19.23;;
43184;SDS011;28803;52.308;19.096;2023-07-13T07:26:50;27.95;;;19.02;;
43184;SDS011;28803;52.308;19.096;2023-07-13T07:29:21;25.75;;;18.67;;
43184;SDS011;28803;52.308;19.096;2023-07-13T07:31:52;26.70;;;20.45;;
43184;SDS011;28803;52.308;19.096;2023-07-13T07:34:24;28.80;;;19.10;;
43184;SDS011;28803;52.308;19.096;2023-07-13T07:36:51;27.35;;;18.88;;
43184;SDS011;28803;52.308;19.096;2023-07-13T07:39:21;29.05;;;19.75;;
43184;SDS011;28803;52.308;19.096;2023-07-13T07:41:48;24.33;;;17.70;;
43184;SDS011;28803;52.308;19.096;2023-07-13T07:44:19;28.10;;;18.98;;
43184;SDS011;28803;52.308;19.096;2023-07-13T07:46:46;24.48;;;18.92;;
43184;SDS011;28803;52.308;19.096;2023-07-13T07:49:15;31.83;;;18.13;;
43184;SDS011;28803;52.308;19.096;2023-07-13T07:51:42;25.67;;;18.63;;
43184;SDS011;28803;52.308;19.096;2023-07-13T07:54:09;23.00;;;16.95;;
43184;SDS011;28803;52.308;19.096;2023-07-13T07:56:42;29.42;;;18.23;;
43184;SDS011;28803;52.308;19.096;2023-07-13T07:59:29;24.30;;;16.55;;
43184;SDS011;28803;52.308;19.096;2023-07-13T08:02:16;23.88;;;17.55;;
43184;SDS011;28803;52.308;19.096;2023-07-13T08:05:03;21.85;;;15.95;;
43184;SDS011;28803;52.308;19.096;2023-07-13T08:07:34;22.25;;;15.90;;
43184;SDS011;28803;52.308;19.096;2023-07-13T08:10:02;23.40;;;16.00;;
43184;SDS011;28803;52.308;19.096;2023-07-13T08:12:29;22.02;;;15.70;;
43184;SDS011;28803;52.308;19.096;2023-07-13T08:15:03;19.85;;;15.02;;
43184;SDS011;28803;52.308;19.096;2023-07-13T08:17:30;22.58;;;16.23;;
43184;SDS011;28803;52.308;19.096;2023-07-13T08:19:58;21.15;;;16.08;;
43184;SDS011;28803;52.308;19.096;2023-07-13T08:22:26;24.08;;;16.15;;
43184;SDS011;28803;52.308;19.096;2023-07-13T08:24:54;18.80;;;14.65;;
43184;SDS011;28803;52.308;19.096;2023-07-13T08:27:23;20.27;;;14.85;;
43184;SDS011;28803;52.308;19.096;2023-07-13T08:29:52;22.42;;;16.95;;
43184;SDS011;28803;52.308;19.096;2023-07-13T08:32:20;20.30;;;15.70;;
43184;SDS011;28803;52.308;19.096;2023-07-13T08:34:49;24.77;;;17.63;;
43184;SDS011;28803;52.308;19.096;2023-07-13T08:37:16;19.98;;;14.13;;
43184;SDS011;28803;52.308;19.096;2023-07-13T08:39:45;20.30;;;15.02;;
43184;SDS011;28803;52.308;19.096;2023-07-13T08:45:04;17.55;;;13.02;;
43184;SDS011;28803;52.308;19.096;2023-07-13T08:47:35;18.52;;;13.98;;
43184;SDS011;28803;52.308;19.096;2023-07-13T08:50:10;17.27;;;12.40;;
43184;SDS011;28803;52.308;19.096;2023-07-13T08:52:40;19.92;;;13.77;;
43184;SDS011;28803;52.308;19.096;2023-07-13T08:57:48;16.20;;;12.10;;
43184;SDS011;28803;52.308;19.096;2023-07-13T09:00:21;16.17;;;11.50;;
43184;SDS011;28803;52.308;19.096;2023-07-13T09:02:56;16.88;;;12.43;;
43184;SDS011;28803;52.308;19.096;2023-07-13T09:10:32;17.00;;;9.32;;
43184;SDS011;28803;52.308;19.096;2023-07-13T09:15:57;14.43;;;9.93;;
43184;SDS011;28803;52.308;19.096;2023-07-13T09:21:07;16.33;;;9.55;;
43184;SDS011;28803;52.308;19.096;2023-07-13T09:23:36;13.00;;;8.85;;
43184;SDS011;28803;52.308;19.096;2023-07-13T09:26:13;11.57;;;8.93;;
43184;SDS011;28803;52.308;19.096;2023-07-13T09:28:57;10.30;;;7.40;;
43184;SDS011;28803;52.308;19.096;2023-07-13T09:31:39;14.05;;;6.93;;
43184;SDS011;28803;52.308;19.096;2023-07-13T09:34:12;9.60;;;7.35;;
43184;SDS011;28803;52.308;19.096;2023-07-13T09:36:40;10.13;;;7.53;;
43184;SDS011;28803;52.308;19.096;2023-07-13T09:44:17;10.00;;;7.63;;
43184;SDS011;28803;52.308;19.096;2023-07-13T09:46:55;8.90;;;6.38;;
43184;SDS011;28803;52.308;19.096;2023-07-13T09:49:26;8.57;;;6.90;;
43184;SDS011;28803;52.308;19.096;2023-07-13T09:52:05;7.18;;;5.93;;
43184;SDS011;28803;52.308;19.096;2023-07-13T09:54:37;9.15;;;5.20;;
43184;SDS011;28803;52.308;19.096;2023-07-13T09:57:12;4.85;;;3.45;;
43184;SDS011;28803;52.308;19.096;2023-07-13T09:59:46;5.38;;;3.95;;
43184;SDS011;28803;52.308;19.096;2023-07-13T10:05:00;4.43;;;2.95;;
43184;SDS011;28803;52.308;19.096;2023-07-13T10:07:31;5.40;;;2.58;;
43184;SDS011;28803;52.308;19.096;2023-07-13T10:09:59;4.68;;;2.35;;
43184;SDS011;28803;52.308;19.096;2023-07-13T10:12:30;4.15;;;2.30;;
43184;SDS011;28803;52.308;19.096;2023-07-13T10:15:03;4.22;;;2.00;;
43184;SDS011;28803;52.308;19.096;2023-07-13T10:17:49;3.65;;;1.90;;
43184;SDS011;28803;52.308;19.096;2023-07-13T10:20:22;3.38;;;2.08;;
43184;SDS011;28803;52.308;19.096;2023-07-13T10:22:54;3.25;;;1.90;;
43184;SDS011;28803;52.308;19.096;2023-07-13T10:25:31;4.13;;;1.85;;
43184;SDS011;28803;52.308;19.096;2023-07-13T10:28:06;3.35;;;2.00;;
43184;SDS011;28803;52.308;19.096;2023-07-13T10:30:55;2.47;;;1.75;;
43184;SDS011;28803;52.308;19.096;2023-07-13T10:33:25;4.28;;;1.98;;
43184;SDS011;28803;52.308;19.096;2023-07-13T10:38:58;2.95;;;1.50;;
43184;SDS011;28803;52.308;19.096;2023-07-13T10:41:29;4.70;;;2.00;;
43184;SDS011;28803;52.308;19.096;2023-07-13T10:43:59;7.72;;;1.85;;
43184;SDS011;28803;52.308;19.096;2023-07-13T10:46:27;3.92;;;2.67;;
43184;SDS011;28803;52.308;19.096;2023-07-13T10:49:00;4.53;;;2.17;;
43184;SDS011;28803;52.308;19.096;2023-07-13T10:51:31;7.35;;;2.40;;
43184;SDS011;28803;52.308;19.096;2023-07-13T10:57:17;4.60;;;2.13;;
43184;SDS011;28803;52.308;19.096;2023-07-13T11:00:32;5.43;;;2.38;;
43184;SDS011;28803;52.308;19.096;2023-07-13T11:02:43;5.05;;;2.60;;
43184;SDS011;28803;52.308;19.096;2023-07-13T11:05:28;2.47;;;1.70;;
43184;SDS011;28803;52.308;19.096;2023-07-13T11:07:56;2.95;;;2.22;;
43184;SDS011;28803;52.308;19.096;2023-07-13T11:10:59;5.68;;;2.85;;
43184;SDS011;28803;52.308;19.096;2023-07-13T11:16:13;3.90;;;2.33;;
43184;SDS011;28803;52.308;19.096;2023-07-13T11:18:50;3.67;;;2.50;;
43184;SDS011;28803;52.308;19.096;2023-07-13T11:21:20;5.03;;;2.50;;
43184;SDS011;28803;52.308;19.096;2023-07-13T11:26:44;8.90;;;2.40;;
43184;SDS011;28803;52.308;19.096;2023-07-13T11:31:52;4.50;;;2.80;;
43184;SDS011;28803;52.308;19.096;2023-07-13T11:34:24;6.00;;;2.75;;
43184;SDS011;28803;52.308;19.096;2023-07-13T11:36:55;5.80;;;2.50;;
43184;SDS011;28803;52.308;19.096;2023-07-13T11:39:31;4.35;;;2.17;;
43184;SDS011;28803;52.308;19.096;2023-07-13T11:42:03;5.18;;;3.17;;
43184;SDS011;28803;52.308;19.096;2023-07-13T11:44:33;4.22;;;2.88;;
43184;SDS011;28803;52.308;19.096;2023-07-13T11:47:09;5.20;;;2.75;;
43184;SDS011;28803;52.308;19.096;2023-07-13T11:49:45;5.03;;;3.10;;
43184;SDS011;28803;52.308;19.096;2023-07-13T11:52:17;3.72;;;2.00;;
43184;SDS011;28803;52.308;19.096;2023-07-13T11:54:49;4.30;;;2.95;;
43184;SDS011;28803;52.308;19.096;2023-07-13T11:57:24;4.78;;;2.90;;
43184;SDS011;28803;52.308;19.096;2023-07-13T11:59:55;3.90;;;2.47;;
43184;SDS011;28803;52.308;19.096;2023-07-13T12:02:32;3.88;;;3.10;;
43184;SDS011;28803;52.308;19.096;2023-07-13T12:05:03;6.28;;;2.92;;
43184;SDS011;28803;52.308;19.096;2023-07-13T12:07:32;6.22;;;2.83;;
43184;SDS011;28803;52.308;19.096;2023-07-13T12:10:01;4.82;;;3.17;;
43184;SDS011;28803;52.308;19.096;2023-07-13T12:12:34;6.13;;;3.13;;
43184;SDS011;28803;52.308;19.096;2023-07-13T12:15:07;3.60;;;2.10;;
43184;SDS011;28803;52.308;19.096;2023-07-13T12:17:35;4.75;;;2.42;;
43184;SDS011;28803;52.308;19.096;2023-07-13T12:20:04;7.18;;;2.80;;
43184;SDS011;28803;52.308;19.096;2023-07-13T12:22:51;4.90;;;2.38;;
43184;SDS011;28803;52.308;19.096;2023-07-13T12:25:19;5.85;;;2.80;;
43184;SDS011;28803;52.308;19.096;2023-07-13T12:27:48;3.78;;;2.63;;
43184;SDS011;28803;52.308;19.096;2023-07-13T12:33:07;5.53;;;3.15;;
43184;SDS011;28803;52.308;19.096;2023-07-13T12:35:56;3.30;;;2.38;;
43184;SDS011;28803;52.308;19.096;2023-07-13T12:38:27;5.50;;;3.08;;
43184;SDS011;28803;52.308;19.096;2023-07-13T12:40:54;4.45;;;3.03;;
43184;SDS011;28803;52.308;19.096;2023-07-13T12:43:22;5.80;;;2.70;;
43184;SDS011;28803;52.308;19.096;2023-07-13T12:46:25;4.72;;;2.83;;
43184;SDS011;28803;52.308;19.096;2023-07-13T12:48:51;4.22;;;2.88;;
43184;SDS011;28803;52.308;19.096;2023-07-13T12:51:56;4.95;;;2.53;;
43184;SDS011;28803;52.308;19.096;2023-07-13T12:54:28;4.63;;;2.70;;
43184;SDS011;28803;52.308;19.096;2023-07-13T12:56:57;5.57;;;3.00;;
43184;SDS011;28803;52.308;19.096;2023-07-13T12:59:29;5.47;;;3.53;;
43184;SDS011;28803;52.308;19.096;2023-07-13T13:01:59;6.25;;;3.28;;
43184;SDS011;28803;52.308;19.096;2023-07-13T13:04:27;6.13;;;3.72;;
43184;SDS011;28803;52.308;19.096;2023-07-13T13:07:02;4.45;;;2.95;;
43184;SDS011;28803;52.308;19.096;2023-07-13T13:09:33;6.20;;;3.53;;
43184;SDS011;28803;52.308;19.096;2023-07-13T13:12:00;6.38;;;3.05;;
43184;SDS011;28803;52.308;19.096;2023-07-13T13:14:27;5.70;;;3.17;;
43184;SDS011;28803;52.308;19.096;2023-07-13T13:16:55;5.10;;;3.47;;
43184;SDS011;28803;52.308;19.096;2023-07-13T13:19:25;7.38;;;3.25;;
43184;SDS011;28803;52.308;19.096;2023-07-13T13:21:54;5.03;;;2.95;;
43184;SDS011;28803;52.308;19.096;2023-07-13T13:24:25;4.25;;;3.00;;
43184;SDS011;28803;52.308;19.096;2023-07-13T13:26:54;4.28;;;3.00;;
43184;SDS011;28803;52.308;19.096;2023-07-13T13:29:36;6.18;;;2.58;;
43184;SDS011;28803;52.308;19.096;2023-07-13T13:32:09;5.55;;;2.65;;
43184;SDS011;28803;52.308;19.096;2023-07-13T13:34:39;4.90;;;2.75;;
43184;SDS011;28803;52.308;19.096;2023-07-13T13:37:20;3.35;;;2.38;;
43184;SDS011;28803;52.308;19.096;2023-07-13T13:39:50;7.00;;;2.97;;
43184;SDS011;28803;52.308;19.096;2023-07-13T13:42:34;6.00;;;2.50;;
43184;SDS011;28803;52.308;19.096;2023-07-13T13:45:02;4.68;;;2.97;;
43184;SDS011;28803;52.308;19.096;2023-07-13T13:47:31;5.25;;;2.70;;
43184;SDS011;28803;52.308;19.096;2023-07-13T13:50:01;3.88;;;2.50;;
43184;SDS011;28803;52.308;19.096;2023-07-13T13:52:37;6.43;;;2.65;;
43184;SDS011;28803;52.308;19.096;2023-07-13T13:55:11;3.92;;;2.40;;
43184;SDS011;28803;52.308;19.096;2023-07-13T13:57:43;6.30;;;3.05;;
43184;SDS011;28803;52.308;19.096;2023-07-13T14:00:10;4.55;;;2.13;;
43184;SDS011;28803;52.308;19.096;2023-07-13T14:02:42;3.30;;;2.00;;
43184;SDS011;28803;52.308;19.096;2023-07-13T14:05:15;4.18;;;2.20;;
43184;SDS011;28803;52.308;19.096;2023-07-13T14:07:48;3.72;;;1.90;;
43184;SDS011;28803;52.308;19.096;2023-07-13T14:10:17;2.58;;;1.48;;
43184;SDS011;28803;52.308;19.096;2023-07-13T14:12:47;3.28;;;1.98;;
43184;SDS011;28803;52.308;19.096;2023-07-13T14:15:23;4.15;;;2.85;;
43184;SDS011;28803;52.308;19.096;2023-07-13T14:17:53;3.17;;;1.85;;
43184;SDS011;28803;52.308;19.096;2023-07-13T14:20:22;3.15;;;2.40;;
43184;SDS011;28803;52.308;19.096;2023-07-13T14:22:51;2.58;;;1.65;;
43184;SDS011;28803;52.308;19.096;2023-07-13T14:25:20;4.28;;;1.60;;
43184;SDS011;28803;52.308;19.096;2023-07-13T14:27:49;4.55;;;1.70;;
43184;SDS011;28803;52.308;19.096;2023-07-13T14:30:21;4.70;;;1.98;;
43184;SDS011;28803;52.308;19.096;2023-07-13T14:32:48;6.07;;;2.00;;
43184;SDS011;28803;52.308;19.096;2023-07-13T14:35:20;3.13;;;1.42;;
43184;SDS011;28803;52.308;19.096;2023-07-13T14:37:50;3.45;;;2.08;;
43184;SDS011;28803;52.308;19.096;2023-07-13T14:40:28;3.58;;;2.08;;
43184;SDS011;28803;52.308;19.096;2023-07-13T14:42:57;3.33;;;1.70;;
43184;SDS011;28803;52.308;19.096;2023-07-13T14:45:25;3.22;;;1.80;;
43184;SDS011;28803;52.308;19.096;2023-07-13T14:47:53;2.35;;;1.52;;
43184;SDS011;28803;52.308;19.096;2023-07-13T14:50:23;3.42;;;1.80;;
43184;SDS011;28803;52.308;19.096;2023-07-13T14:52:54;4.18;;;1.70;;
43184;SDS011;28803;52.308;19.096;2023-07-13T14:55:22;2.95;;;1.40;;
43184;SDS011;28803;52.308;19.096;2023-07-13T14:57:52;3.40;;;1.60;;
43184;SDS011;28803;52.308;19.096;2023-07-13T15:00:21;3.35;;;1.42;;
43184;SDS011;28803;52.308;19.096;2023-07-13T15:02:52;6.20;;;2.10;;
43184;SDS011;28803;52.308;19.096;2023-07-13T15:05:23;3.83;;;1.67;;
43184;SDS011;28803;52.308;19.096;2023-07-13T15:07:53;2.67;;;1.80;;
43184;SDS011;28803;52.308;19.096;2023-07-13T15:10:25;4.57;;;1.70;;
43184;SDS011;28803;52.308;19.096;2023-07-13T15:13:01;3.05;;;1.65;;
43184;SDS011;28803;52.308;19.096;2023-07-13T15:15:48;2.90;;;1.75;;
43184;SDS011;28803;52.308;19.096;2023-07-13T15:18:19;7.32;;;2.08;;
43184;SDS011;28803;52.308;19.096;2023-07-13T15:20:49;2.58;;;1.60;;
43184;SDS011;28803;52.308;19.096;2023-07-13T15:23:19;4.55;;;1.85;;